sensor_id;sensor_type;location;lat;lon;timestamp;temperature;humidity
47336;DHT22;33068;51.990;5.926;2023-09-19T00:01:20;14.70;99.90
47336;DHT22;33068;51.990;5.926;2023-09-19T00:03:48;14.70;99.90
47336;DHT22;33068;51.990;5.926;2023-09-19T00:06:14;14.60;99.90
47336;DHT22;33068;51.990;5.926;2023-09-19T00:08:41;14.50;99.90
47336;DHT22;33068;51.990;5.926;2023-09-19T00:11:09;14.50;99.90
47336;DHT22;33068;51.990;5.926;2023-09-19T00:13:36;14.40;99.90
47336;DHT22;33068;51.990;5.926;2023-09-19T00:16:08;14.60;99.90
47336;DHT22;33068;51.990;5.926;2023-09-19T00:18:36;14.40;99.90
47336;DHT22;33068;51.990;5.926;2023-09-19T00:21:04;14.30;99.90
47336;DHT22;33068;51.990;5.926;2023-09-19T00:23:31;14.40;99.90
47336;DHT22;33068;51.990;5.926;2023-09-19T00:25:59;14.50;99.90
47336;DHT22;33068;51.990;5.926;2023-09-19T00:28:26;14.50;99.90
47336;DHT22;33068;51.990;5.926;2023-09-19T00:30:53;14.50;99.90
47336;DHT22;33068;51.990;5.926;2023-09-19T00:33:21;14.50;99.90
47336;DHT22;33068;51.990;5.926;2023-09-19T00:35:48;14.60;99.90
47336;DHT22;33068;51.990;5.926;2023-09-19T00:38:17;14.60;99.90
47336;DHT22;33068;51.990;5.926;2023-09-19T00:40:47;14.60;99.90
47336;DHT22;33068;51.990;5.926;2023-09-19T00:43:14;14.60;99.90
47336;DHT22;33068;51.990;5.926;2023-09-19T00:45:43;14.60;99.90
47336;DHT22;33068;51.990;5.926;2023-09-19T00:48:11;14.60;99.90
47336;DHT22;33068;51.990;5.926;2023-09-19T00:50:38;14.60;99.90
47336;DHT22;33068;51.990;5.926;2023-09-19T00:53:08;14.60;99.90
47336;DHT22;33068;51.990;5.926;2023-09-19T00:55:36;14.70;99.90
47336;DHT22;33068;51.990;5.926;2023-09-19T00:58:04;14.70;99.90
47336;DHT22;33068;51.990;5.926;2023-09-19T01:00:32;14.70;99.90
47336;DHT22;33068;51.990;5.926;2023-09-19T01:03:00;15.00;99.90
47336;DHT22;33068;51.990;5.926;2023-09-19T01:05:27;14.80;99.90
47336;DHT22;33068;51.990;5.926;2023-09-19T01:07:54;14.80;99.90
47336;DHT22;33068;51.990;5.926;2023-09-19T01:10:22;14.70;99.90
47336;DHT22;33068;51.990;5.926;2023-09-19T01:12:57;14.70;99.90
47336;DHT22;33068;51.990;5.926;2023-09-19T01:15:36;14.70;99.90
47336;DHT22;33068;51.990;5.926;2023-09-19T01:18:16;14.70;99.90
47336;DHT22;33068;51.990;5.926;2023-09-19T01:20:53;14.60;99.90
47336;DHT22;33068;51.990;5.926;2023-09-19T01:23:28;14.60;99.90
47336;DHT22;33068;51.990;5.926;2023-09-19T01:26:18;14.50;99.90
47336;DHT22;33068;51.990;5.926;2023-09-19T01:29:01;14.50;99.90
47336;DHT22;33068;51.990;5.926;2023-09-19T01:31:34;14.50;99.90
47336;DHT22;33068;51.990;5.926;2023-09-19T01:34:03;14.50;99.90
47336;DHT22;33068;51.990;5.926;2023-09-19T01:36:32;14.50;99.90
47336;DHT22;33068;51.990;5.926;2023-09-19T01:39:04;14.50;99.90
47336;DHT22;33068;51.990;5.926;2023-09-19T01:42:03;14.50;99.90
47336;DHT22;33068;51.990;5.926;2023-09-19T01:44:40;14.50;99.90
47336;DHT22;33068;51.990;5.926;2023-09-19T01:47:19;14.50;99.90
47336;DHT22;33068;51.990;5.926;2023-09-19T01:49:55;14.60;99.90
47336;DHT22;33068;51.990;5.926;2023-09-19T01:52:26;14.60;99.90
47336;DHT22;33068;51.990;5.926;2023-09-19T01:55:02;14.70;99.90
47336;DHT22;33068;51.990;5.926;2023-09-19T01:57:35;14.70;99.90
47336;DHT22;33068;51.990;5.926;2023-09-19T02:00:07;14.70;99.90
47336;DHT22;33068;51.990;5.926;2023-09-19T02:02:45;14.80;99.90
47336;DHT22;33068;51.990;5.926;2023-09-19T02:05:13;14.70;99.90
47336;DHT22;33068;51.990;5.926;2023-09-19T02:07:40;14.80;99.90
47336;DHT22;33068;51.990;5.926;2023-09-19T02:10:07;14.80;99.90
47336;DHT22;33068;51.990;5.926;2023-09-19T02:12:36;14.70;99.90
47336;DHT22;33068;51.990;5.926;2023-09-19T02:15:04;14.70;99.90
47336;DHT22;33068;51.990;5.926;2023-09-19T02:17:33;14.70;99.90
47336;DHT22;33068;51.990;5.926;2023-09-19T02:20:00;14.60;99.90
47336;DHT22;33068;51.990;5.926;2023-09-19T02:22:29;14.60;99.90
47336;DHT22;33068;51.990;5.926;2023-09-19T02:24:56;14.50;99.90
47336;DHT22;33068;51.990;5.926;2023-09-19T02:27:25;14.40;99.90
47336;DHT22;33068;51.990;5.926;2023-09-19T02:29:52;14.40;99.90
47336;DHT22;33068;51.990;5.926;2023-09-19T02:32:18;14.40;99.90
47336;DHT22;33068;51.990;5.926;2023-09-19T02:34:46;14.10;99.90
47336;DHT22;33068;51.990;5.926;2023-09-19T02:37:14;14.30;99.90
47336;DHT22;33068;51.990;5.926;2023-09-19T02:39:42;14.30;99.90
47336;DHT22;33068;51.990;5.926;2023-09-19T02:42:08;14.20;99.90
47336;DHT22;33068;51.990;5.926;2023-09-19T02:44:34;14.20;99.90
47336;DHT22;33068;51.990;5.926;2023-09-19T02:47:01;14.10;99.90
47336;DHT22;33068;51.990;5.926;2023-09-19T02:49:27;14.10;99.90
47336;DHT22;33068;51.990;5.926;2023-09-19T02:51:54;14.00;99.90
47336;DHT22;33068;51.990;5.926;2023-09-19T02:54:21;14.00;99.90
47336;DHT22;33068;51.990;5.926;2023-09-19T02:56:49;14.00;99.90
47336;DHT22;33068;51.990;5.926;2023-09-19T02:59:16;14.00;99.90
47336;DHT22;33068;51.990;5.926;2023-09-19T03:01:43;13.90;99.90
47336;DHT22;33068;51.990;5.926;2023-09-19T03:04:10;14.00;99.90
47336;DHT22;33068;51.990;5.926;2023-09-19T03:06:37;13.90;99.90
47336;DHT22;33068;51.990;5.926;2023-09-19T03:09:04;13.90;99.90
47336;DHT22;33068;51.990;5.926;2023-09-19T03:11:37;13.90;99.90
47336;DHT22;33068;51.990;5.926;2023-09-19T03:14:06;13.80;99.90
47336;DHT22;33068;51.990;5.926;2023-09-19T03:16:32;13.70;99.90
47336;DHT22;33068;51.990;5.926;2023-09-19T03:18:59;13.60;99.90
47336;DHT22;33068;51.990;5.926;2023-09-19T03:21:28;13.60;99.90
47336;DHT22;33068;51.990;5.926;2023-09-19T03:23:56;13.60;99.90
47336;DHT22;33068;51.990;5.926;2023-09-19T03:26:23;13.60;99.90
47336;DHT22;33068;51.990;5.926;2023-09-19T03:28:53;13.50;99.90
47336;DHT22;33068;51.990;5.926;2023-09-19T03:31:20;13.50;99.90
47336;DHT22;33068;51.990;5.926;2023-09-19T03:33:47;13.50;99.90
47336;DHT22;33068;51.990;5.926;2023-09-19T03:36:13;13.50;99.90
47336;DHT22;33068;51.990;5.926;2023-09-19T03:38:40;13.50;99.90
47336;DHT22;33068;51.990;5.926;2023-09-19T03:41:06;13.60;99.90
47336;DHT22;33068;51.990;5.926;2023-09-19T03:43:35;13.40;99.90
47336;DHT22;33068;51.990;5.926;2023-09-19T03:46:03;13.40;99.90
47336;DHT22;33068;51.990;5.926;2023-09-19T03:48:32;13.40;99.90
47336;DHT22;33068;51.990;5.926;2023-09-19T03:50:59;13.20;99.90
47336;DHT22;33068;51.990;5.926;2023-09-19T03:53:26;13.40;99.90
47336;DHT22;33068;51.990;5.926;2023-09-19T03:55:52;13.30;99.90
47336;DHT22;33068;51.990;5.926;2023-09-19T03:58:19;13.20;99.90
47336;DHT22;33068;51.990;5.926;2023-09-19T04:00:46;13.30;99.90
47336;DHT22;33068;51.990;5.926;2023-09-19T04:03:14;13.30;99.90
47336;DHT22;33068;51.990;5.926;2023-09-19T04:05:45;13.30;99.90
47336;DHT22;33068;51.990;5.926;2023-09-19T04:08:12;13.20;99.90
47336;DHT22;33068;51.990;5.926;2023-09-19T04:10:42;13.20;99.90
47336;DHT22;33068;51.990;5.926;2023-09-19T04:13:08;13.20;99.90
47336;DHT22;33068;51.990;5.926;2023-09-19T04:15:35;13.20;99.90
47336;DHT22;33068;51.990;5.926;2023-09-19T04:18:02;13.20;99.90
47336;DHT22;33068;51.990;5.926;2023-09-19T04:20:29;13.20;99.90
47336;DHT22;33068;51.990;5.926;2023-09-19T04:22:56;13.10;99.90
47336;DHT22;33068;51.990;5.926;2023-09-19T04:25:22;13.20;99.90
47336;DHT22;33068;51.990;5.926;2023-09-19T04:27:49;13.20;99.90
47336;DHT22;33068;51.990;5.926;2023-09-19T04:30:15;13.20;99.90
47336;DHT22;33068;51.990;5.926;2023-09-19T04:32:42;13.20;99.90
47336;DHT22;33068;51.990;5.926;2023-09-19T04:35:10;13.20;99.90
47336;DHT22;33068;51.990;5.926;2023-09-19T04:37:38;13.20;99.90
47336;DHT22;33068;51.990;5.926;2023-09-19T04:40:07;13.20;99.90
47336;DHT22;33068;51.990;5.926;2023-09-19T04:42:40;13.20;99.90
47336;DHT22;33068;51.990;5.926;2023-09-19T04:45:07;13.10;99.90
47336;DHT22;33068;51.990;5.926;2023-09-19T04:47:35;13.10;99.90
47336;DHT22;33068;51.990;5.926;2023-09-19T04:50:09;13.10;99.90
47336;DHT22;33068;51.990;5.926;2023-09-19T04:52:40;13.10;99.90
47336;DHT22;33068;51.990;5.926;2023-09-19T04:55:08;13.10;99.90
47336;DHT22;33068;51.990;5.926;2023-09-19T04:57:35;13.10;99.90
47336;DHT22;33068;51.990;5.926;2023-09-19T05:00:03;13.00;99.90
47336;DHT22;33068;51.990;5.926;2023-09-19T05:02:32;13.10;99.90
47336;DHT22;33068;51.990;5.926;2023-09-19T05:05:00;13.10;99.90
47336;DHT22;33068;51.990;5.926;2023-09-19T05:07:26;13.10;99.90
47336;DHT22;33068;51.990;5.926;2023-09-19T05:09:53;13.10;99.90
47336;DHT22;33068;51.990;5.926;2023-09-19T05:24:41;13.20;99.90
47336;DHT22;33068;51.990;5.926;2023-09-19T05:27:13;13.20;99.90
47336;DHT22;33068;51.990;5.926;2023-09-19T05:29:42;13.20;99.90
47336;DHT22;33068;51.990;5.926;2023-09-19T05:43:22;13.30;99.90
47336;DHT22;33068;51.990;5.926;2023-09-19T05:45:49;13.30;99.90
47336;DHT22;33068;51.990;5.926;2023-09-19T05:48:18;13.30;99.90
47336;DHT22;33068;51.990;5.926;2023-09-19T05:50:46;13.00;99.90
47336;DHT22;33068;51.990;5.926;2023-09-19T05:53:15;13.40;99.90
47336;DHT22;33068;51.990;5.926;2023-09-19T05:55:41;13.40;99.90
47336;DHT22;33068;51.990;5.926;2023-09-19T05:58:08;13.40;99.90
47336;DHT22;33068;51.990;5.926;2023-09-19T06:00:36;13.40;99.90
47336;DHT22;33068;51.990;5.926;2023-09-19T06:03:03;13.50;99.90
47336;DHT22;33068;51.990;5.926;2023-09-19T06:05:29;13.50;99.90
47336;DHT22;33068;51.990;5.926;2023-09-19T06:07:57;13.60;99.90
47336;DHT22;33068;51.990;5.926;2023-09-19T06:10:26;13.60;99.90
47336;DHT22;33068;51.990;5.926;2023-09-19T06:12:54;13.60;99.90
47336;DHT22;33068;51.990;5.926;2023-09-19T06:15:21;13.70;99.90
47336;DHT22;33068;51.990;5.926;2023-09-19T06:17:52;13.70;99.90
47336;DHT22;33068;51.990;5.926;2023-09-19T06:20:21;13.70;99.90
47336;DHT22;33068;51.990;5.926;2023-09-19T06:22:49;13.80;99.90
47336;DHT22;33068;51.990;5.926;2023-09-19T06:25:16;13.80;99.90
47336;DHT22;33068;51.990;5.926;2023-09-19T06:27:45;13.80;99.90
47336;DHT22;33068;51.990;5.926;2023-09-19T06:30:12;13.90;99.90
47336;DHT22;33068;51.990;5.926;2023-09-19T06:32:39;13.90;99.90
47336;DHT22;33068;51.990;5.926;2023-09-19T06:35:07;13.90;99.90
47336;DHT22;33068;51.990;5.926;2023-09-19T06:37:34;14.00;99.90
47336;DHT22;33068;51.990;5.926;2023-09-19T06:40:01;14.00;99.90
47336;DHT22;33068;51.990;5.926;2023-09-19T06:42:31;14.20;99.90
47336;DHT22;33068;51.990;5.926;2023-09-19T06:44:58;14.10;99.90
47336;DHT22;33068;51.990;5.926;2023-09-19T06:47:24;14.10;99.90
47336;DHT22;33068;51.990;5.926;2023-09-19T06:49:52;14.20;99.90
47336;DHT22;33068;51.990;5.926;2023-09-19T06:52:19;14.20;99.90
47336;DHT22;33068;51.990;5.926;2023-09-19T06:54:48;14.20;99.90
47336;DHT22;33068;51.990;5.926;2023-09-19T06:57:16;14.30;99.90
47336;DHT22;33068;51.990;5.926;2023-09-19T06:59:42;14.30;99.90
47336;DHT22;33068;51.990;5.926;2023-09-19T07:02:08;14.30;99.90
47336;DHT22;33068;51.990;5.926;2023-09-19T07:04:35;14.30;99.90
47336;DHT22;33068;51.990;5.926;2023-09-19T07:07:01;14.30;99.90
47336;DHT22;33068;51.990;5.926;2023-09-19T07:09:28;14.50;99.90
47336;DHT22;33068;51.990;5.926;2023-09-19T07:11:55;14.60;99.90
47336;DHT22;33068;51.990;5.926;2023-09-19T07:14:21;14.50;99.90
47336;DHT22;33068;51.990;5.926;2023-09-19T07:16:48;14.60;99.90
47336;DHT22;33068;51.990;5.926;2023-09-19T07:19:15;14.70;99.90
47336;DHT22;33068;51.990;5.926;2023-09-19T07:21:41;14.70;99.90
47336;DHT22;33068;51.990;5.926;2023-09-19T07:24:08;14.70;99.90
47336;DHT22;33068;51.990;5.926;2023-09-19T07:26:35;14.80;99.90
47336;DHT22;33068;51.990;5.926;2023-09-19T07:29:02;14.80;99.90
47336;DHT22;33068;51.990;5.926;2023-09-19T07:31:29;14.90;99.90
47336;DHT22;33068;51.990;5.926;2023-09-19T07:33:56;14.90;99.90
47336;DHT22;33068;51.990;5.926;2023-09-19T07:36:23;15.00;99.90
47336;DHT22;33068;51.990;5.926;2023-09-19T07:38:50;15.00;99.90
47336;DHT22;33068;51.990;5.926;2023-09-19T07:41:16;15.10;99.90
47336;DHT22;33068;51.990;5.926;2023-09-19T07:43:43;15.10;99.90
47336;DHT22;33068;51.990;5.926;2023-09-19T07:46:10;15.20;99.90
47336;DHT22;33068;51.990;5.926;2023-09-19T07:48:37;15.20;99.90
47336;DHT22;33068;51.990;5.926;2023-09-19T07:51:04;15.30;99.90
47336;DHT22;33068;51.990;5.926;2023-09-19T07:53:32;15.30;99.90
47336;DHT22;33068;51.990;5.926;2023-09-19T07:56:04;15.30;99.90
47336;DHT22;33068;51.990;5.926;2023-09-19T07:58:31;15.30;99.90
47336;DHT22;33068;51.990;5.926;2023-09-19T08:01:04;15.40;99.90
47336;DHT22;33068;51.990;5.926;2023-09-19T08:03:30;15.40;99.90
47336;DHT22;33068;51.990;5.926;2023-09-19T08:05:58;15.40;99.90
47336;DHT22;33068;51.990;5.926;2023-09-19T08:08:26;15.50;99.90
47336;DHT22;33068;51.990;5.926;2023-09-19T08:10:53;15.50;99.90
47336;DHT22;33068;51.990;5.926;2023-09-19T08:13:21;15.60;99.90
47336;DHT22;33068;51.990;5.926;2023-09-19T08:15:48;15.60;99.90
47336;DHT22;33068;51.990;5.926;2023-09-19T08:18:16;15.60;99.90
47336;DHT22;33068;51.990;5.926;2023-09-19T08:20:42;15.70;99.90
47336;DHT22;33068;51.990;5.926;2023-09-19T08:23:09;15.70;99.90
47336;DHT22;33068;51.990;5.926;2023-09-19T08:25:35;15.90;99.90
47336;DHT22;33068;51.990;5.926;2023-09-19T08:28:04;15.90;99.90
47336;DHT22;33068;51.990;5.926;2023-09-19T08:30:34;16.10;99.90
47336;DHT22;33068;51.990;5.926;2023-09-19T08:33:00;16.30;99.90
47336;DHT22;33068;51.990;5.926;2023-09-19T08:35:31;16.40;99.90
47336;DHT22;33068;51.990;5.926;2023-09-19T08:37:57;16.50;99.90
47336;DHT22;33068;51.990;5.926;2023-09-19T08:40:26;16.60;99.90
47336;DHT22;33068;51.990;5.926;2023-09-19T08:42:55;16.60;99.90
47336;DHT22;33068;51.990;5.926;2023-09-19T08:45:23;16.80;99.90
47336;DHT22;33068;51.990;5.926;2023-09-19T08:48:10;16.90;99.90
47336;DHT22;33068;51.990;5.926;2023-09-19T08:50:45;16.90;99.90
47336;DHT22;33068;51.990;5.926;2023-09-19T08:53:21;16.90;99.90
47336;DHT22;33068;51.990;5.926;2023-09-19T08:55:49;16.90;99.90
47336;DHT22;33068;51.990;5.926;2023-09-19T08:58:18;17.00;99.90
47336;DHT22;33068;51.990;5.926;2023-09-19T09:00:48;17.00;99.90
47336;DHT22;33068;51.990;5.926;2023-09-19T09:03:16;17.10;99.90
47336;DHT22;33068;51.990;5.926;2023-09-19T09:05:47;17.20;99.90
47336;DHT22;33068;51.990;5.926;2023-09-19T09:08:18;17.30;99.90
47336;DHT22;33068;51.990;5.926;2023-09-19T09:10:47;17.30;99.90
47336;DHT22;33068;51.990;5.926;2023-09-19T09:13:14;17.50;99.90
47336;DHT22;33068;51.990;5.926;2023-09-19T09:15:43;17.60;99.90
47336;DHT22;33068;51.990;5.926;2023-09-19T09:18:11;17.60;99.90
47336;DHT22;33068;51.990;5.926;2023-09-19T09:20:39;17.60;99.90
47336;DHT22;33068;51.990;5.926;2023-09-19T09:23:08;17.80;99.90
47336;DHT22;33068;51.990;5.926;2023-09-19T09:25:49;18.00;99.90
47336;DHT22;33068;51.990;5.926;2023-09-19T09:28:22;18.20;99.90
47336;DHT22;33068;51.990;5.926;2023-09-19T09:30:50;18.30;99.90
47336;DHT22;33068;51.990;5.926;2023-09-19T09:33:17;18.50;99.90
47336;DHT22;33068;51.990;5.926;2023-09-19T09:35:48;18.50;99.90
47336;DHT22;33068;51.990;5.926;2023-09-19T09:38:20;18.50;99.90
47336;DHT22;33068;51.990;5.926;2023-09-19T09:40:48;18.50;99.90
47336;DHT22;33068;51.990;5.926;2023-09-19T09:43:27;18.70;99.90
47336;DHT22;33068;51.990;5.926;2023-09-19T09:46:08;18.80;99.90
47336;DHT22;33068;51.990;5.926;2023-09-19T09:48:57;18.70;99.90
47336;DHT22;33068;51.990;5.926;2023-09-19T09:51:38;18.70;99.90
47336;DHT22;33068;51.990;5.926;2023-09-19T09:54:12;18.80;99.90
47336;DHT22;33068;51.990;5.926;2023-09-19T09:56:55;18.90;99.90
47336;DHT22;33068;51.990;5.926;2023-09-19T09:59:43;19.00;99.90
47336;DHT22;33068;51.990;5.926;2023-09-19T10:02:12;19.10;99.90
47336;DHT22;33068;51.990;5.926;2023-09-19T10:04:46;19.10;99.90
47336;DHT22;33068;51.990;5.926;2023-09-19T10:07:29;19.20;99.90
47336;DHT22;33068;51.990;5.926;2023-09-19T10:10:01;19.20;99.90
47336;DHT22;33068;51.990;5.926;2023-09-19T10:12:42;19.30;99.90
47336;DHT22;33068;51.990;5.926;2023-09-19T10:15:12;19.40;99.90
47336;DHT22;33068;51.990;5.926;2023-09-19T10:17:43;19.60;99.90
47336;DHT22;33068;51.990;5.926;2023-09-19T10:20:13;19.60;99.90
47336;DHT22;33068;51.990;5.926;2023-09-19T10:23:07;19.50;99.90
47336;DHT22;33068;51.990;5.926;2023-09-19T10:25:38;19.50;99.90
47336;DHT22;33068;51.990;5.926;2023-09-19T10:28:07;19.50;99.90
47336;DHT22;33068;51.990;5.926;2023-09-19T10:30:42;19.70;99.90
47336;DHT22;33068;51.990;5.926;2023-09-19T10:33:12;19.80;99.90
47336;DHT22;33068;51.990;5.926;2023-09-19T10:35:42;19.80;99.90
47336;DHT22;33068;51.990;5.926;2023-09-19T10:38:10;19.70;99.90
47336;DHT22;33068;51.990;5.926;2023-09-19T10:40:39;19.70;99.90
47336;DHT22;33068;51.990;5.926;2023-09-19T10:43:12;19.70;99.90
47336;DHT22;33068;51.990;5.926;2023-09-19T10:45:41;19.70;99.90
47336;DHT22;33068;51.990;5.926;2023-09-19T10:48:12;19.70;99.90
47336;DHT22;33068;51.990;5.926;2023-09-19T10:50:44;19.70;99.90
47336;DHT22;33068;51.990;5.926;2023-09-19T10:53:14;19.70;99.90
47336;DHT22;33068;51.990;5.926;2023-09-19T10:55:49;19.40;99.90
47336;DHT22;33068;51.990;5.926;2023-09-19T10:58:26;19.40;99.90
47336;DHT22;33068;51.990;5.926;2023-09-19T11:00:56;19.30;99.90
47336;DHT22;33068;51.990;5.926;2023-09-19T11:03:27;19.20;99.90
47336;DHT22;33068;51.990;5.926;2023-09-19T11:06:10;19.20;99.90
47336;DHT22;33068;51.990;5.926;2023-09-19T11:08:53;19.00;99.90
47336;DHT22;33068;51.990;5.926;2023-09-19T11:11:48;18.90;99.90
47336;DHT22;33068;51.990;5.926;2023-09-19T11:17:43;19.00;99.90
47336;DHT22;33068;51.990;5.926;2023-09-19T11:20:25;18.90;99.90
47336;DHT22;33068;51.990;5.926;2023-09-19T11:23:21;19.00;99.90
47336;DHT22;33068;51.990;5.926;2023-09-19T11:25:53;19.20;99.90
47336;DHT22;33068;51.990;5.926;2023-09-19T11:28:31;19.20;99.90
47336;DHT22;33068;51.990;5.926;2023-09-19T11:30:58;19.30;99.90
47336;DHT22;33068;51.990;5.926;2023-09-19T11:33:26;19.10;99.90
47336;DHT22;33068;51.990;5.926;2023-09-19T11:36:02;19.40;99.90
47336;DHT22;33068;51.990;5.926;2023-09-19T13:04:53;19.80;99.90
47336;DHT22;33068;51.990;5.926;2023-09-19T13:07:41;19.70;99.90
47336;DHT22;33068;51.990;5.926;2023-09-19T13:10:11;19.60;99.90
47336;DHT22;33068;51.990;5.926;2023-09-19T13:12:42;19.50;99.90
47336;DHT22;33068;51.990;5.926;2023-09-19T13:15:14;19.60;99.90
47336;DHT22;33068;51.990;5.926;2023-09-19T13:17:46;19.60;99.90
47336;DHT22;33068;51.990;5.926;2023-09-19T13:20:26;19.60;99.90
47336;DHT22;33068;51.990;5.926;2023-09-19T13:22:55;19.80;99.90
47336;DHT22;33068;51.990;5.926;2023-09-19T13:25:26;19.90;99.90
47336;DHT22;33068;51.990;5.926;2023-09-19T13:27:56;19.80;99.90
47336;DHT22;33068;51.990;5.926;2023-09-19T13:30:27;19.70;99.90
47336;DHT22;33068;51.990;5.926;2023-09-19T13:33:05;19.70;99.90
47336;DHT22;33068;51.990;5.926;2023-09-19T13:35:34;19.60;99.90
47336;DHT22;33068;51.990;5.926;2023-09-19T13:38:03;19.40;99.90
47336;DHT22;33068;51.990;5.926;2023-09-19T13:40:30;19.50;99.90
47336;DHT22;33068;51.990;5.926;2023-09-19T13:43:00;19.40;99.90
47336;DHT22;33068;51.990;5.926;2023-09-19T13:45:28;19.40;99.90
47336;DHT22;33068;51.990;5.926;2023-09-19T13:47:56;19.40;99.90
47336;DHT22;33068;51.990;5.926;2023-09-19T13:50:26;19.40;99.90
47336;DHT22;33068;51.990;5.926;2023-09-19T13:52:56;19.40;99.90
47336;DHT22;33068;51.990;5.926;2023-09-19T13:55:23;19.30;99.90
47336;DHT22;33068;51.990;5.926;2023-09-19T13:57:50;19.40;99.90
47336;DHT22;33068;51.990;5.926;2023-09-19T14:00:20;19.40;99.90
47336;DHT22;33068;51.990;5.926;2023-09-19T14:02:49;19.50;99.90
47336;DHT22;33068;51.990;5.926;2023-09-19T14:05:16;19.60;99.90
47336;DHT22;33068;51.990;5.926;2023-09-19T14:07:45;19.70;99.90
47336;DHT22;33068;51.990;5.926;2023-09-19T14:10:15;19.80;99.90
47336;DHT22;33068;51.990;5.926;2023-09-19T14:12:44;20.00;99.90
47336;DHT22;33068;51.990;5.926;2023-09-19T14:15:12;20.10;99.90
47336;DHT22;33068;51.990;5.926;2023-09-19T14:17:39;20.20;99.90
47336;DHT22;33068;51.990;5.926;2023-09-19T14:20:08;20.30;99.90
47336;DHT22;33068;51.990;5.926;2023-09-19T14:22:36;20.20;99.90
47336;DHT22;33068;51.990;5.926;2023-09-19T14:25:04;20.20;99.90
47336;DHT22;33068;51.990;5.926;2023-09-19T14:27:32;20.20;99.90
47336;DHT22;33068;51.990;5.926;2023-09-19T14:29:59;20.20;99.90
47336;DHT22;33068;51.990;5.926;2023-09-19T14:32:27;20.30;99.90
47336;DHT22;33068;51.990;5.926;2023-09-19T14:34:54;20.10;99.90
47336;DHT22;33068;51.990;5.926;2023-09-19T14:37:22;20.00;99.90
47336;DHT22;33068;51.990;5.926;2023-09-19T14:39:49;19.90;99.90
47336;DHT22;33068;51.990;5.926;2023-09-19T14:42:16;19.80;99.90
47336;DHT22;33068;51.990;5.926;2023-09-19T14:44:45;19.70;99.90
47336;DHT22;33068;51.990;5.926;2023-09-19T14:47:14;19.70;99.90
47336;DHT22;33068;51.990;5.926;2023-09-19T14:49:42;19.80;99.90
47336;DHT22;33068;51.990;5.926;2023-09-19T14:52:11;19.70;99.90
47336;DHT22;33068;51.990;5.926;2023-09-19T14:54:41;19.80;99.90
47336;DHT22;33068;51.990;5.926;2023-09-19T14:57:08;19.70;99.90
47336;DHT22;33068;51.990;5.926;2023-09-19T14:59:36;19.70;99.90
47336;DHT22;33068;51.990;5.926;2023-09-19T15:02:05;19.70;99.90
47336;DHT22;33068;51.990;5.926;2023-09-19T15:04:32;19.60;99.90
47336;DHT22;33068;51.990;5.926;2023-09-19T15:07:00;19.60;99.90
47336;DHT22;33068;51.990;5.926;2023-09-19T15:09:28;19.50;99.90
47336;DHT22;33068;51.990;5.926;2023-09-19T15:11:57;19.40;99.90
47336;DHT22;33068;51.990;5.926;2023-09-19T15:14:25;19.40;99.90
47336;DHT22;33068;51.990;5.926;2023-09-19T15:16:52;19.40;99.90
47336;DHT22;33068;51.990;5.926;2023-09-19T15:19:20;19.30;99.90
47336;DHT22;33068;51.990;5.926;2023-09-19T15:21:48;19.30;99.90
47336;DHT22;33068;51.990;5.926;2023-09-19T15:24:15;19.20;99.90
47336;DHT22;33068;51.990;5.926;2023-09-19T15:26:43;19.20;99.90
47336;DHT22;33068;51.990;5.926;2023-09-19T15:29:11;19.20;99.90
47336;DHT22;33068;51.990;5.926;2023-09-19T15:31:39;19.30;99.90
47336;DHT22;33068;51.990;5.926;2023-09-19T15:34:06;19.20;99.90
47336;DHT22;33068;51.990;5.926;2023-09-19T15:36:36;19.20;99.90
47336;DHT22;33068;51.990;5.926;2023-09-19T15:39:05;19.10;99.90
47336;DHT22;33068;51.990;5.926;2023-09-19T15:41:34;19.10;99.90
47336;DHT22;33068;51.990;5.926;2023-09-19T15:44:03;19.10;99.90
47336;DHT22;33068;51.990;5.926;2023-09-19T15:46:32;19.10;99.90
47336;DHT22;33068;51.990;5.926;2023-09-19T15:49:00;19.10;99.90
47336;DHT22;33068;51.990;5.926;2023-09-19T15:51:28;19.10;99.90
47336;DHT22;33068;51.990;5.926;2023-09-19T15:53:57;19.00;99.90
47336;DHT22;33068;51.990;5.926;2023-09-19T15:56:26;19.00;99.90
47336;DHT22;33068;51.990;5.926;2023-09-19T15:58:54;19.00;99.90
47336;DHT22;33068;51.990;5.926;2023-09-19T16:01:22;19.00;99.90
47336;DHT22;33068;51.990;5.926;2023-09-19T16:03:51;19.00;99.90
47336;DHT22;33068;51.990;5.926;2023-09-19T16:06:20;19.00;99.90
47336;DHT22;33068;51.990;5.926;2023-09-19T16:08:50;19.00;99.90
47336;DHT22;33068;51.990;5.926;2023-09-19T16:11:19;19.00;99.90
47336;DHT22;33068;51.990;5.926;2023-09-19T16:13:48;19.00;99.90
47336;DHT22;33068;51.990;5.926;2023-09-19T16:16:16;18.90;99.90
47336;DHT22;33068;51.990;5.926;2023-09-19T16:18:45;18.90;99.90
47336;DHT22;33068;51.990;5.926;2023-09-19T16:21:14;19.00;99.90
47336;DHT22;33068;51.990;5.926;2023-09-19T16:23:45;19.00;99.90
47336;DHT22;33068;51.990;5.926;2023-09-19T16:26:12;18.90;99.90
47336;DHT22;33068;51.990;5.926;2023-09-19T16:28:43;18.90;99.90
47336;DHT22;33068;51.990;5.926;2023-09-19T16:31:11;18.90;99.90
47336;DHT22;33068;51.990;5.926;2023-09-19T16:33:41;18.80;99.90
47336;DHT22;33068;51.990;5.926;2023-09-19T16:36:08;18.90;99.90
47336;DHT22;33068;51.990;5.926;2023-09-19T16:38:37;18.90;99.90
47336;DHT22;33068;51.990;5.926;2023-09-19T16:41:04;18.90;99.90
47336;DHT22;33068;51.990;5.926;2023-09-19T16:43:32;18.80;99.90
47336;DHT22;33068;51.990;5.926;2023-09-19T19:10:02;17.40;99.90
47336;DHT22;33068;51.990;5.926;2023-09-19T19:12:49;17.50;99.90
47336;DHT22;33068;51.990;5.926;2023-09-19T19:18:50;17.50;99.90
47336;DHT22;33068;51.990;5.926;2023-09-19T19:21:36;17.50;99.90
47336;DHT22;33068;51.990;5.926;2023-09-19T19:27:20;17.40;99.90
47336;DHT22;33068;51.990;5.926;2023-09-19T19:28:24;17.40;99.90
47336;DHT22;33068;51.990;5.926;2023-09-19T19:30:55;17.40;99.90
47336;DHT22;33068;51.990;5.926;2023-09-19T19:33:26;17.50;99.90
47336;DHT22;33068;51.990;5.926;2023-09-19T19:36:15;17.40;99.90
47336;DHT22;33068;51.990;5.926;2023-09-19T19:38:45;17.50;99.90
47336;DHT22;33068;51.990;5.926;2023-09-19T19:41:18;17.50;99.90
47336;DHT22;33068;51.990;5.926;2023-09-19T19:43:51;17.50;99.90
47336;DHT22;33068;51.990;5.926;2023-09-19T19:46:18;17.50;99.90
47336;DHT22;33068;51.990;5.926;2023-09-19T19:49:03;17.50;99.90
47336;DHT22;33068;51.990;5.926;2023-09-19T19:51:39;17.50;99.90
47336;DHT22;33068;51.990;5.926;2023-09-19T19:54:12;17.60;99.90
47336;DHT22;33068;51.990;5.926;2023-09-19T19:57:04;17.60;99.90
47336;DHT22;33068;51.990;5.926;2023-09-19T19:59:50;17.70;99.90
47336;DHT22;33068;51.990;5.926;2023-09-19T20:02:55;17.60;99.90
47336;DHT22;33068;51.990;5.926;2023-09-19T20:13:11;17.70;99.90
47336;DHT22;33068;51.990;5.926;2023-09-19T20:28:45;17.70;99.90
47336;DHT22;33068;51.990;5.926;2023-09-19T20:33:00;17.70;99.90